sensor_id;sensor_type;location;lat;lon;timestamp;pressure;altitude;pressure_sealevel;temperature;humidity
18790;BME280;9523;42.650;23.386;2023-03-25T00:00:42;94330.63;;;9.90;93.52
18790;BME280;9523;42.650;23.386;2023-03-25T00:03:10;94326.69;;;9.88;91.86
18790;BME280;9523;42.650;23.386;2023-03-25T00:05:38;94326.91;;;9.91;90.74
18790;BME280;9523;42.650;23.386;2023-03-25T00:08:07;94327.41;;;9.94;94.58
18790;BME280;9523;42.650;23.386;2023-03-25T00:10:37;94329.75;;;9.95;93.76
18790;BME280;9523;42.650;23.386;2023-03-25T00:13:04;94338.03;;;9.88;95.11
18790;BME280;9523;42.650;23.386;2023-03-25T00:15:34;94319.91;;;9.68;92.46
18790;BME280;9523;42.650;23.386;2023-03-25T00:18:01;94309.97;;;9.65;94.96
18790;BME280;9523;42.650;23.386;2023-03-25T00:20:28;94324.25;;;9.78;93.04
18790;BME280;9523;42.650;23.386;2023-03-25T00:22:56;94320.25;;;9.80;93.48
18790;BME280;9523;42.650;23.386;2023-03-25T00:25:27;94321.22;;;9.84;92.90
18790;BME280;9523;42.650;23.386;2023-03-25T00:27:54;94312.25;;;9.85;93.44
18790;BME280;9523;42.650;23.386;2023-03-25T00:30:21;94318.91;;;9.83;95.80
18790;BME280;9523;42.650;23.386;2023-03-25T00:32:48;94311.06;;;9.78;95.38
18790;BME280;9523;42.650;23.386;2023-03-25T00:35:17;94310.25;;;9.64;95.56
18790;BME280;9523;42.650;23.386;2023-03-25T00:37:44;94311.03;;;9.64;97.45
18790;BME280;9523;42.650;23.386;2023-03-25T00:40:12;94298.81;;;9.55;97.38
18790;BME280;9523;42.650;23.386;2023-03-25T00:42:41;94306.34;;;9.61;98.43
18790;BME280;9523;42.650;23.386;2023-03-25T00:45:10;94308.50;;;9.59;98.96
18790;BME280;9523;42.650;23.386;2023-03-25T00:47:39;94297.72;;;9.56;98.76
18790;BME280;9523;42.650;23.386;2023-03-25T00:50:07;94311.22;;;9.54;99.22
18790;BME280;9523;42.650;23.386;2023-03-25T00:52:34;94301.81;;;9.48;99.49
18790;BME280;9523;42.650;23.386;2023-03-25T00:55:01;94303.56;;;9.39;100.00
18790;BME280;9523;42.650;23.386;2023-03-25T00:57:29;94301.25;;;9.32;100.00
18790;BME280;9523;42.650;23.386;2023-03-25T00:59:57;94248.97;;;8.93;100.00
18790;BME280;9523;42.650;23.386;2023-03-25T01:02:24;94310.25;;;9.31;100.00
18790;BME280;9523;42.650;23.386;2023-03-25T01:04:55;94302.28;;;9.18;99.92
18790;BME280;9523;42.650;23.386;2023-03-25T01:07:27;94293.25;;;9.05;100.00
18790;BME280;9523;42.650;23.386;2023-03-25T01:09:56;94289.25;;;9.08;100.00
18790;BME280;9523;42.650;23.386;2023-03-25T01:12:24;94296.72;;;9.01;100.00
18790;BME280;9523;42.650;23.386;2023-03-25T01:14:51;94290.69;;;9.00;100.00
18790;BME280;9523;42.650;23.386;2023-03-25T01:17:20;94277.31;;;8.96;100.00
18790;BME280;9523;42.650;23.386;2023-03-25T01:19:50;94277.97;;;8.88;100.00
18790;BME280;9523;42.650;23.386;2023-03-25T01:22:17;94284.59;;;8.86;100.00
18790;BME280;9523;42.650;23.386;2023-03-25T01:24:47;94277.53;;;8.81;100.00
18790;BME280;9523;42.650;23.386;2023-03-25T01:27:14;94275.28;;;8.75;100.00
18790;BME280;9523;42.650;23.386;2023-03-25T01:29:44;94278.03;;;8.65;100.00
18790;BME280;9523;42.650;23.386;2023-03-25T01:32:11;94271.22;;;8.64;100.00
18790;BME280;9523;42.650;23.386;2023-03-25T01:34:39;94272.97;;;8.68;100.00
18790;BME280;9523;42.650;23.386;2023-03-25T01:37:07;94254.72;;;8.77;100.00
18790;BME280;9523;42.650;23.386;2023-03-25T01:39:34;94258.50;;;8.71;100.00
18790;BME280;9523;42.650;23.386;2023-03-25T01:42:01;94231.75;;;8.45;100.00
18790;BME280;9523;42.650;23.386;2023-03-25T01:47:35;94256.75;;;8.42;100.00
18790;BME280;9523;42.650;23.386;2023-03-25T01:50:03;94245.72;;;8.40;100.00
18790;BME280;9523;42.650;23.386;2023-03-25T01:52:33;94238.72;;;8.36;100.00
18790;BME280;9523;42.650;23.386;2023-03-25T01:55:01;94244.25;;;8.34;100.00
18790;BME280;9523;42.650;23.386;2023-03-25T01:57:33;94243.06;;;8.22;100.00
18790;BME280;9523;42.650;23.386;2023-03-25T02:00:00;94252.19;;;8.29;100.00
18790;BME280;9523;42.650;23.386;2023-03-25T02:02:33;94255.59;;;8.30;100.00
18790;BME280;9523;42.650;23.386;2023-03-25T02:05:04;94252.22;;;8.24;100.00
18790;BME280;9523;42.650;23.386;2023-03-25T02:07:37;94244.84;;;8.26;100.00
18790;BME280;9523;42.650;23.386;2023-03-25T02:10:09;94247.94;;;8.33;100.00
18790;BME280;9523;42.650;23.386;2023-03-25T02:12:37;94220.03;;;8.14;100.00
18790;BME280;9523;42.650;23.386;2023-03-25T02:15:10;94250.38;;;8.25;100.00
18790;BME280;9523;42.650;23.386;2023-03-25T02:17:58;94239.38;;;8.23;100.00
18790;BME280;9523;42.650;23.386;2023-03-25T02:20:53;94239.19;;;8.14;100.00
18790;BME280;9523;42.650;23.386;2023-03-25T02:30:03;94236.03;;;7.93;100.00
18790;BME280;9523;42.650;23.386;2023-03-25T02:32:52;94236.25;;;7.97;100.00
18790;BME280;9523;42.650;23.386;2023-03-25T02:35:39;94236.03;;;7.93;100.00
18790;BME280;9523;42.650;23.386;2023-03-25T02:38:26;94241.72;;;8.00;100.00
18790;BME280;9523;42.650;23.386;2023-03-25T02:41:00;94239.78;;;7.87;100.00
18790;BME280;9523;42.650;23.386;2023-03-25T02:43:31;94235.56;;;7.86;100.00
18790;BME280;9523;42.650;23.386;2023-03-25T02:46:02;94237.16;;;7.87;100.00
18790;BME280;9523;42.650;23.386;2023-03-25T02:48:34;94237.16;;;7.87;100.00
18790;BME280;9523;42.650;23.386;2023-03-25T02:51:06;94239.16;;;7.95;100.00
18790;BME280;9523;42.650;23.386;2023-03-25T02:53:39;94223.50;;;7.85;100.00
18790;BME280;9523;42.650;23.386;2023-03-25T02:56:09;94228.81;;;7.80;100.00
18790;BME280;9523;42.650;23.386;2023-03-25T02:58:39;94225.25;;;7.71;100.00
18790;BME280;9523;42.650;23.386;2023-03-25T03:01:07;94215.84;;;7.65;100.00
18790;BME280;9523;42.650;23.386;2023-03-25T03:03:35;94222.16;;;7.64;100.00
18790;BME280;9523;42.650;23.386;2023-03-25T03:06:04;94228.47;;;7.63;100.00
18790;BME280;9523;42.650;23.386;2023-03-25T03:08:42;94210.38;;;7.62;100.00
18790;BME280;9523;42.650;23.386;2023-03-25T03:11:13;94219.03;;;7.62;100.00
18790;BME280;9523;42.650;23.386;2023-03-25T03:13:59;94210.66;;;7.60;100.00
18790;BME280;9523;42.650;23.386;2023-03-25T03:16:32;94218.75;;;7.64;100.00
18790;BME280;9523;42.650;23.386;2023-03-25T03:19:14;94213.78;;;7.62;100.00
18790;BME280;9523;42.650;23.386;2023-03-25T03:21:51;94214.13;;;7.55;100.00
18790;BME280;9523;42.650;23.386;2023-03-25T03:24:24;94208.88;;;7.55;100.00
18790;BME280;9523;42.650;23.386;2023-03-25T03:26:57;94214.97;;;7.46;100.00
18790;BME280;9523;42.650;23.386;2023-03-25T03:29:30;94165.63;;;7.48;100.00
18790;BME280;9523;42.650;23.386;2023-03-25T03:32:03;94215.44;;;7.77;100.00
18790;BME280;9523;42.650;23.386;2023-03-25T03:34:35;94221.22;;;7.79;100.00
18790;BME280;9523;42.650;23.386;2023-03-25T03:37:09;94210.66;;;7.60;100.00
18790;BME280;9523;42.650;23.386;2023-03-25T03:39:40;94222.41;;;7.68;100.00
18790;BME280;9523;42.650;23.386;2023-03-25T03:42:12;94199.22;;;7.46;100.00
18790;BME280;9523;42.650;23.386;2023-03-25T03:44:46;94222.81;;;7.51;100.00
18790;BME280;9523;42.650;23.386;2023-03-25T03:47:18;94227.06;;;7.47;100.00
18790;BME280;9523;42.650;23.386;2023-03-25T03:49:50;94229.72;;;7.42;100.00
18790;BME280;9523;42.650;23.386;2023-03-25T03:52:21;94235.78;;;7.37;100.00
18790;BME280;9523;42.650;23.386;2023-03-25T03:54:54;94226.69;;;7.30;100.00
18790;BME280;9523;42.650;23.386;2023-03-25T03:57:26;94227.72;;;7.29;100.00
18790;BME280;9523;42.650;23.386;2023-03-25T03:59:59;94229.03;;;7.31;100.00
18790;BME280;9523;42.650;23.386;2023-03-25T04:02:36;94226.91;;;7.33;100.00
18790;BME280;9523;42.650;23.386;2023-03-25T04:05:05;94225.53;;;7.41;100.00
18790;BME280;9523;42.650;23.386;2023-03-25T04:07:36;94227.91;;;7.37;100.00
18790;BME280;9523;42.650;23.386;2023-03-25T04:10:11;94228.22;;;7.36;100.00
18790;BME280;9523;42.650;23.386;2023-03-25T04:12:42;94235.59;;;7.29;100.00
18790;BME280;9523;42.650;23.386;2023-03-25T04:15:11;94231.38;;;7.33;100.00
18790;BME280;9523;42.650;23.386;2023-03-25T04:17:39;94218.53;;;7.31;100.00
18790;BME280;9523;42.650;23.386;2023-03-25T04:20:09;94228.16;;;7.41;100.00
18790;BME280;9523;42.650;23.386;2023-03-25T04:22:39;94230.78;;;7.41;100.00
18790;BME280;9523;42.650;23.386;2023-03-25T04:25:11;94227.63;;;7.44;100.00
18790;BME280;9523;42.650;23.386;2023-03-25T04:27:39;94231.25;;;7.48;100.00
18790;BME280;9523;42.650;23.386;2023-03-25T04:30:07;94228.63;;;7.48;100.00
18790;BME280;9523;42.650;23.386;2023-03-25T04:32:34;94229.56;;;7.57;100.00
18790;BME280;9523;42.650;23.386;2023-03-25T04:35:04;94231.13;;;7.58;100.00
18790;BME280;9523;42.650;23.386;2023-03-25T04:37:34;94227.00;;;7.52;100.00
18790;BME280;9523;42.650;23.386;2023-03-25T04:40:02;94228.72;;;7.38;100.00
18790;BME280;9523;42.650;23.386;2023-03-25T04:42:32;94238.16;;;7.39;100.00
18790;BME280;9523;42.650;23.386;2023-03-25T04:45:02;94247.19;;;7.28;100.00
18790;BME280;9523;42.650;23.386;2023-03-25T04:47:29;94241.38;;;7.31;100.00
18790;BME280;9523;42.650;23.386;2023-03-25T04:49:59;94243.53;;;7.24;100.00
18790;BME280;9523;42.650;23.386;2023-03-25T04:52:26;94232.09;;;7.09;100.00
18790;BME280;9523;42.650;23.386;2023-03-25T04:54:53;94246.16;;;7.24;100.00
18790;BME280;9523;42.650;23.386;2023-03-25T04:57:20;94244.31;;;7.24;100.00
18790;BME280;9523;42.650;23.386;2023-03-25T04:59:49;94247.22;;;7.23;100.00
18790;BME280;9523;42.650;23.386;2023-03-25T05:02:16;94251.09;;;7.30;100.00
18790;BME280;9523;42.650;23.386;2023-03-25T05:04:45;94238.75;;;7.31;100.00
18790;BME280;9523;42.650;23.386;2023-03-25T05:07:12;94243.97;;;7.36;100.00
18790;BME280;9523;42.650;23.386;2023-03-25T05:09:40;94236.88;;;7.36;100.00
18790;BME280;9523;42.650;23.386;2023-03-25T05:12:10;94229.25;;;7.35;100.00
18790;BME280;9523;42.650;23.386;2023-03-25T05:14:39;94247.81;;;7.43;100.00
18790;BME280;9523;42.650;23.386;2023-03-25T05:17:07;94243.53;;;7.52;100.00
18790;BME280;9523;42.650;23.386;2023-03-25T05:19:34;94240.53;;;7.64;100.00
18790;BME280;9523;42.650;23.386;2023-03-25T05:22:01;94248.09;;;7.71;100.00
18790;BME280;9523;42.650;23.386;2023-03-25T05:24:29;94240.38;;;7.79;100.00
18790;BME280;9523;42.650;23.386;2023-03-25T05:26:56;94250.31;;;7.82;100.00
18790;BME280;9523;42.650;23.386;2023-03-25T05:29:27;94249.44;;;7.92;100.00
18790;BME280;9523;42.650;23.386;2023-03-25T05:31:58;94218.19;;;7.90;100.00
18790;BME280;9523;42.650;23.386;2023-03-25T05:34:26;94246.69;;;8.26;100.00
18790;BME280;9523;42.650;23.386;2023-03-25T05:36:55;94246.13;;;8.29;100.00
18790;BME280;9523;42.650;23.386;2023-03-25T05:39:22;94242.97;;;8.32;100.00
18790;BME280;9523;42.650;23.386;2023-03-25T05:41:50;94240.69;;;8.44;100.00
18790;BME280;9523;42.650;23.386;2023-03-25T05:44:23;94243.78;;;8.51;100.00
18790;BME280;9523;42.650;23.386;2023-03-25T05:46:52;94244.13;;;8.63;100.00
18790;BME280;9523;42.650;23.386;2023-03-25T05:49:29;94251.66;;;8.70;100.00
18790;BME280;9523;42.650;23.386;2023-03-25T05:51:56;94247.66;;;8.72;100.00
18790;BME280;9523;42.650;23.386;2023-03-25T05:54:27;94242.28;;;8.82;100.00
18790;BME280;9523;42.650;23.386;2023-03-25T05:56:53;94249.75;;;8.94;100.00
18790;BME280;9523;42.650;23.386;2023-03-25T05:59:20;94251.34;;;9.09;100.00
18790;BME280;9523;42.650;23.386;2023-03-25T06:01:51;94254.63;;;9.19;100.00
18790;BME280;9523;42.650;23.386;2023-03-25T06:04:17;94254.25;;;9.26;100.00
18790;BME280;9523;42.650;23.386;2023-03-25T06:06:50;94248.34;;;9.34;100.00
18790;BME280;9523;42.650;23.386;2023-03-25T06:09:22;94241.50;;;9.33;100.00
18790;BME280;9523;42.650;23.386;2023-03-25T06:11:49;94246.63;;;9.43;100.00
18790;BME280;9523;42.650;23.386;2023-03-25T06:14:18;94250.44;;;9.64;100.00
18790;BME280;9523;42.650;23.386;2023-03-25T06:16:53;94245.22;;;9.78;100.00
18790;BME280;9523;42.650;23.386;2023-03-25T06:19:21;94247.66;;;9.88;100.00
18790;BME280;9523;42.650;23.386;2023-03-25T06:21:52;94222.69;;;9.85;100.00
18790;BME280;9523;42.650;23.386;2023-03-25T06:24:19;94247.06;;;10.05;99.94
18790;BME280;9523;42.650;23.386;2023-03-25T06:26:46;94238.91;;;10.20;97.86
18790;BME280;9523;42.650;23.386;2023-03-25T06:29:13;94235.78;;;10.18;96.69
18790;BME280;9523;42.650;23.386;2023-03-25T06:31:40;94246.44;;;10.26;95.68
18790;BME280;9523;42.650;23.386;2023-03-25T06:34:07;94247.88;;;10.32;94.35
18790;BME280;9523;42.650;23.386;2023-03-25T06:36:37;94242.63;;;10.46;91.77
18790;BME280;9523;42.650;23.386;2023-03-25T06:39:06;94236.13;;;10.52;93.41
18790;BME280;9523;42.650;23.386;2023-03-25T06:41:34;94253.13;;;10.60;90.97
18790;BME280;9523;42.650;23.386;2023-03-25T06:44:08;94248.91;;;10.72;87.73
18790;BME280;9523;42.650;23.386;2023-03-25T06:46:35;94247.53;;;10.75;87.70
18790;BME280;9523;42.650;23.386;2023-03-25T06:49:01;94247.22;;;10.90;86.79
18790;BME280;9523;42.650;23.386;2023-03-25T06:51:31;94257.44;;;10.92;84.57
18790;BME280;9523;42.650;23.386;2023-03-25T06:54:21;94252.31;;;10.87;86.87
18790;BME280;9523;42.650;23.386;2023-03-25T06:57:05;94254.03;;;10.91;89.53
18790;BME280;9523;42.650;23.386;2023-03-25T06:59:33;94261.56;;;10.98;89.84
18790;BME280;9523;42.650;23.386;2023-03-25T07:02:00;94246.00;;;10.96;90.83
18790;BME280;9523;42.650;23.386;2023-03-25T07:04:29;94262.22;;;11.03;91.08
18790;BME280;9523;42.650;23.386;2023-03-25T07:06:56;94255.56;;;11.06;90.98
18790;BME280;9523;42.650;23.386;2023-03-25T07:09:24;94256.41;;;11.15;90.50
18790;BME280;9523;42.650;23.386;2023-03-25T07:11:54;94256.59;;;11.18;91.86
18790;BME280;9523;42.650;23.386;2023-03-25T07:14:24;94260.22;;;11.22;90.31
18790;BME280;9523;42.650;23.386;2023-03-25T07:16:52;94257.84;;;11.21;90.67
18790;BME280;9523;42.650;23.386;2023-03-25T07:19:19;94250.41;;;11.23;90.25
18790;BME280;9523;42.650;23.386;2023-03-25T07:21:52;94254.50;;;11.29;89.10
18790;BME280;9523;42.650;23.386;2023-03-25T07:24:20;94248.50;;;11.37;88.22
18790;BME280;9523;42.650;23.386;2023-03-25T07:26:51;94254.63;;;11.46;88.10
18790;BME280;9523;42.650;23.386;2023-03-25T07:29:18;94246.72;;;11.55;87.45
18790;BME280;9523;42.650;23.386;2023-03-25T07:31:48;94249.75;;;11.62;86.93
18790;BME280;9523;42.650;23.386;2023-03-25T07:34:14;94239.97;;;11.62;86.28
18790;BME280;9523;42.650;23.386;2023-03-25T07:36:43;94252.31;;;11.75;85.39
18790;BME280;9523;42.650;23.386;2023-03-25T07:39:11;94250.84;;;11.92;84.37
18790;BME280;9523;42.650;23.386;2023-03-25T07:41:37;94251.19;;;11.99;82.39
18790;BME280;9523;42.650;23.386;2023-03-25T07:44:06;94247.50;;;12.08;81.63
18790;BME280;9523;42.650;23.386;2023-03-25T07:46:33;94228.69;;;12.10;81.61
18790;BME280;9523;42.650;23.386;2023-03-25T07:49:03;94240.59;;;12.30;81.83
18790;BME280;9523;42.650;23.386;2023-03-25T07:51:35;94241.84;;;12.41;79.88
18790;BME280;9523;42.650;23.386;2023-03-25T07:54:02;94247.34;;;12.53;79.23
18790;BME280;9523;42.650;23.386;2023-03-25T07:56:29;94241.75;;;12.63;76.60
18790;BME280;9523;42.650;23.386;2023-03-25T07:58:55;94233.53;;;12.73;75.65
18790;BME280;9523;42.650;23.386;2023-03-25T08:01:24;94226.53;;;12.86;75.15
18790;BME280;9523;42.650;23.386;2023-03-25T08:03:51;94228.84;;;12.96;74.53
18790;BME280;9523;42.650;23.386;2023-03-25T08:06:20;94227.94;;;13.09;75.01
18790;BME280;9523;42.650;23.386;2023-03-25T08:08:47;94224.69;;;13.21;73.96
18790;BME280;9523;42.650;23.386;2023-03-25T08:11:13;94219.97;;;13.35;73.36
18790;BME280;9523;42.650;23.386;2023-03-25T08:13:41;94220.75;;;13.52;70.93
18790;BME280;9523;42.650;23.386;2023-03-25T08:16:10;94216.00;;;13.75;70.55
18790;BME280;9523;42.650;23.386;2023-03-25T08:18:39;94217.94;;;14.04;69.87
18790;BME280;9523;42.650;23.386;2023-03-25T08:21:12;94214.75;;;14.19;67.08
18790;BME280;9523;42.650;23.386;2023-03-25T08:23:41;94214.81;;;14.48;65.74
18790;BME280;9523;42.650;23.386;2023-03-25T08:26:08;94221.75;;;14.82;71.53
18790;BME280;9523;42.650;23.386;2023-03-25T08:28:35;94207.19;;;15.09;62.35
18790;BME280;9523;42.650;23.386;2023-03-25T08:31:04;94205.69;;;15.20;59.76
18790;BME280;9523;42.650;23.386;2023-03-25T08:33:36;94201.84;;;15.50;62.81
18790;BME280;9523;42.650;23.386;2023-03-25T08:36:07;94199.47;;;15.82;60.32
18790;BME280;9523;42.650;23.386;2023-03-25T08:38:39;94211.94;;;16.14;59.41
18790;BME280;9523;42.650;23.386;2023-03-25T08:41:06;94203.97;;;16.26;57.40
18790;BME280;9523;42.650;23.386;2023-03-25T08:43:33;94196.19;;;16.82;56.36
18790;BME280;9523;42.650;23.386;2023-03-25T08:46:05;94190.84;;;17.77;52.39
18790;BME280;9523;42.650;23.386;2023-03-25T08:48:32;94182.31;;;18.66;52.63
18790;BME280;9523;42.650;23.386;2023-03-25T08:50:59;94183.06;;;19.78;46.93
18790;BME280;9523;42.650;23.386;2023-03-25T08:53:27;94179.78;;;19.88;45.70
18790;BME280;9523;42.650;23.386;2023-03-25T08:55:56;94186.97;;;20.52;45.35
18790;BME280;9523;42.650;23.386;2023-03-25T08:58:26;94155.44;;;20.98;41.44
18790;BME280;9523;42.650;23.386;2023-03-25T09:00:55;94180.81;;;22.01;40.83
18790;BME280;9523;42.650;23.386;2023-03-25T09:03:23;94176.44;;;22.30;39.80
18790;BME280;9523;42.650;23.386;2023-03-25T09:05:51;94173.63;;;21.75;40.60
18790;BME280;9523;42.650;23.386;2023-03-25T09:08:18;94175.34;;;21.57;39.62
18790;BME280;9523;42.650;23.386;2023-03-25T09:10:47;94155.78;;;21.57;39.79
18790;BME280;9523;42.650;23.386;2023-03-25T09:13:14;94168.97;;;22.53;38.76
18790;BME280;9523;42.650;23.386;2023-03-25T09:15:41;94165.16;;;23.19;37.07
18790;BME280;9523;42.650;23.386;2023-03-25T09:18:08;94156.94;;;24.06;35.42
18790;BME280;9523;42.650;23.386;2023-03-25T09:20:35;94151.13;;;23.82;34.76
18790;BME280;9523;42.650;23.386;2023-03-25T09:23:05;94151.53;;;23.84;34.47
18790;BME280;9523;42.650;23.386;2023-03-25T09:25:34;94156.59;;;24.18;35.08
18790;BME280;9523;42.650;23.386;2023-03-25T09:28:02;94159.25;;;24.82;34.07
18790;BME280;9523;42.650;23.386;2023-03-25T09:30:29;94138.06;;;24.91;34.10
18790;BME280;9523;42.650;23.386;2023-03-25T09:32:56;94134.25;;;24.49;35.31
18790;BME280;9523;42.650;23.386;2023-03-25T09:35:24;94130.72;;;23.78;35.44
18790;BME280;9523;42.650;23.386;2023-03-25T09:37:51;94143.53;;;23.02;36.94
18790;BME280;9523;42.650;23.386;2023-03-25T09:40:19;94133.53;;;22.99;37.63
18790;BME280;9523;42.650;23.386;2023-03-25T09:43:10;94128.75;;;23.54;35.80
18790;BME280;9523;42.650;23.386;2023-03-25T09:45:45;94140.44;;;24.32;35.08
18790;BME280;9523;42.650;23.386;2023-03-25T09:48:24;94134.97;;;24.92;33.77
18790;BME280;9523;42.650;23.386;2023-03-25T09:50:53;94130.88;;;25.60;33.41
18790;BME280;9523;42.650;23.386;2023-03-25T09:53:26;94118.25;;;26.05;33.64
18790;BME280;9523;42.650;23.386;2023-03-25T09:55:54;94126.19;;;25.68;32.33
18790;BME280;9523;42.650;23.386;2023-03-25T09:58:33;94117.25;;;24.77;32.77
18790;BME280;9523;42.650;23.386;2023-03-25T10:01:11;94113.84;;;24.48;34.26
18790;BME280;9523;42.650;23.386;2023-03-25T10:03:50;94111.53;;;24.43;34.41
18790;BME280;9523;42.650;23.386;2023-03-25T10:06:21;94108.81;;;24.01;33.59
18790;BME280;9523;42.650;23.386;2023-03-25T10:09:07;94113.41;;;23.68;33.82
18790;BME280;9523;42.650;23.386;2023-03-25T10:11:46;94101.81;;;23.50;35.74
18790;BME280;9523;42.650;23.386;2023-03-25T10:14:19;94104.06;;;23.37;34.75
18790;BME280;9523;42.650;23.386;2023-03-25T10:16:59;94100.78;;;22.86;34.81
18790;BME280;9523;42.650;23.386;2023-03-25T10:19:40;94091.75;;;21.95;35.79
18790;BME280;9523;42.650;23.386;2023-03-25T10:22:14;94096.03;;;22.04;36.19
18790;BME280;9523;42.650;23.386;2023-03-25T10:24:48;94089.91;;;21.66;35.85
18790;BME280;9523;42.650;23.386;2023-03-25T10:27:21;94082.22;;;21.61;35.89
18790;BME280;9523;42.650;23.386;2023-03-25T10:29:59;94079.47;;;21.98;36.59
18790;BME280;9523;42.650;23.386;2023-03-25T10:32:33;94076.59;;;22.21;36.06
18790;BME280;9523;42.650;23.386;2023-03-25T10:35:04;94068.06;;;22.73;34.97
18790;BME280;9523;42.650;23.386;2023-03-25T10:37:38;94073.97;;;23.00;33.55
18790;BME280;9523;42.650;23.386;2023-03-25T10:40:14;94059.47;;;23.40;32.53
18790;BME280;9523;42.650;23.386;2023-03-25T10:42:50;94063.41;;;24.06;32.92
18790;BME280;9523;42.650;23.386;2023-03-25T10:45:22;94051.69;;;24.98;29.22
18790;BME280;9523;42.650;23.386;2023-03-25T10:47:51;94049.97;;;25.32;29.58
18790;BME280;9523;42.650;23.386;2023-03-25T10:50:21;94054.38;;;26.26;28.49
18790;BME280;9523;42.650;23.386;2023-03-25T10:52:48;94048.97;;;26.67;27.11
18790;BME280;9523;42.650;23.386;2023-03-25T10:55:21;94049.03;;;27.58;25.51
18790;BME280;9523;42.650;23.386;2023-03-25T10:57:50;94040.69;;;28.65;25.79
18790;BME280;9523;42.650;23.386;2023-03-25T11:00:20;94038.88;;;28.38;25.22
18790;BME280;9523;42.650;23.386;2023-03-25T11:02:50;94033.41;;;27.92;25.36
18790;BME280;9523;42.650;23.386;2023-03-25T11:05:22;94017.78;;;26.89;26.56
18790;BME280;9523;42.650;23.386;2023-03-25T11:07:52;94030.97;;;26.05;27.33
18790;BME280;9523;42.650;23.386;2023-03-25T11:10:22;94029.72;;;25.68;28.82
18790;BME280;9523;42.650;23.386;2023-03-25T11:12:50;94020.72;;;25.23;28.72
18790;BME280;9523;42.650;23.386;2023-03-25T11:15:22;94023.09;;;25.14;28.60
18790;BME280;9523;42.650;23.386;2023-03-25T11:17:56;94016.34;;;24.67;28.74
18790;BME280;9523;42.650;23.386;2023-03-25T11:20:27;94007.50;;;24.56;29.93
18790;BME280;9523;42.650;23.386;2023-03-25T11:23:01;94002.47;;;24.62;29.98
18790;BME280;9523;42.650;23.386;2023-03-25T11:25:31;93992.91;;;24.47;30.01
18790;BME280;9523;42.650;23.386;2023-03-25T11:28:05;93996.72;;;24.49;30.64
18790;BME280;9523;42.650;23.386;2023-03-25T11:30:36;93945.16;;;24.40;30.77
18790;BME280;9523;42.650;23.386;2023-03-25T11:33:05;93990.56;;;24.52;31.07
18790;BME280;9523;42.650;23.386;2023-03-25T11:35:36;93985.66;;;24.08;32.02
18790;BME280;9523;42.650;23.386;2023-03-25T11:38:13;93980.63;;;24.14;30.64
18790;BME280;9523;42.650;23.386;2023-03-25T11:40:50;93974.41;;;24.45;29.84
18790;BME280;9523;42.650;23.386;2023-03-25T11:43:19;93971.66;;;25.32;29.84
18790;BME280;9523;42.650;23.386;2023-03-25T11:45:49;93964.63;;;26.38;28.37
18790;BME280;9523;42.650;23.386;2023-03-25T11:48:18;93965.56;;;25.80;28.39
18790;BME280;9523;42.650;23.386;2023-03-25T11:50:47;93968.50;;;25.96;28.26
18790;BME280;9523;42.650;23.386;2023-03-25T11:53:19;93965.69;;;26.47;27.95
18790;BME280;9523;42.650;23.386;2023-03-25T11:55:49;93952.84;;;27.42;26.96
18790;BME280;9523;42.650;23.386;2023-03-25T11:58:20;93932.75;;;27.90;26.32
18790;BME280;9523;42.650;23.386;2023-03-25T12:00:50;93944.53;;;28.66;25.92
18790;BME280;9523;42.650;23.386;2023-03-25T12:03:20;93952.75;;;29.37;23.82
18790;BME280;9523;42.650;23.386;2023-03-25T12:06:06;93951.59;;;28.99;23.87
18790;BME280;9523;42.650;23.386;2023-03-25T12:08:41;93946.28;;;29.31;24.13
18790;BME280;9523;42.650;23.386;2023-03-25T12:11:12;93927.38;;;29.08;24.22
18790;BME280;9523;42.650;23.386;2023-03-25T12:13:51;93928.13;;;28.33;24.26
18790;BME280;9523;42.650;23.386;2023-03-25T12:16:29;93924.50;;;27.74;24.90
18790;BME280;9523;42.650;23.386;2023-03-25T12:19:09;93938.00;;;27.54;25.82
18790;BME280;9523;42.650;23.386;2023-03-25T12:22:00;93924.06;;;26.38;26.73
18790;BME280;9523;42.650;23.386;2023-03-25T12:27:33;93922.13;;;24.18;28.76
18790;BME280;9523;42.650;23.386;2023-03-25T12:30:13;93928.31;;;23.90;29.46
18790;BME280;9523;42.650;23.386;2023-03-25T12:32:46;93929.50;;;23.71;29.48
18790;BME280;9523;42.650;23.386;2023-03-25T12:35:22;93935.25;;;23.24;30.11
18790;BME280;9523;42.650;23.386;2023-03-25T12:38:04;93923.28;;;22.79;30.72
18790;BME280;9523;42.650;23.386;2023-03-25T12:40:46;93938.53;;;22.54;31.08
18790;BME280;9523;42.650;23.386;2023-03-25T12:43:20;93934.22;;;22.28;31.50
18790;BME280;9523;42.650;23.386;2023-03-25T12:46:05;93934.09;;;22.07;31.53
18790;BME280;9523;42.650;23.386;2023-03-25T12:48:46;93937.03;;;21.84;32.03
18790;BME280;9523;42.650;23.386;2023-03-25T12:51:25;93936.66;;;21.85;31.72
18790;BME280;9523;42.650;23.386;2023-03-25T12:54:04;93933.47;;;21.66;31.65
18790;BME280;9523;42.650;23.386;2023-03-25T12:56:46;93928.09;;;21.66;33.54
18790;BME280;9523;42.650;23.386;2023-03-25T12:59:39;93924.28;;;21.70;32.34
18790;BME280;9523;42.650;23.386;2023-03-25T13:02:19;93929.50;;;21.49;32.36
18790;BME280;9523;42.650;23.386;2023-03-25T13:05:15;93919.13;;;21.44;32.59
18790;BME280;9523;42.650;23.386;2023-03-25T13:07:46;93926.19;;;21.19;32.74
18790;BME280;9523;42.650;23.386;2023-03-25T13:10:18;93933.00;;;21.09;33.42
18790;BME280;9523;42.650;23.386;2023-03-25T13:12:47;93929.13;;;21.10;33.42
18790;BME280;9523;42.650;23.386;2023-03-25T13:15:18;93935.72;;;21.13;33.32
18790;BME280;9523;42.650;23.386;2023-03-25T13:17:50;93925.72;;;21.09;33.38
18790;BME280;9523;42.650;23.386;2023-03-25T13:20:23;93934.00;;;20.57;33.55
18790;BME280;9523;42.650;23.386;2023-03-25T13:22:53;93927.03;;;20.49;33.76
18790;BME280;9523;42.650;23.386;2023-03-25T13:25:26;93923.81;;;20.36;34.03
18790;BME280;9523;42.650;23.386;2023-03-25T13:27:57;93927.44;;;20.21;34.61
18790;BME280;9523;42.650;23.386;2023-03-25T13:30:31;93925.69;;;20.02;34.76
18790;BME280;9523;42.650;23.386;2023-03-25T13:33:04;93920.19;;;19.95;34.80